Whetstone, Arizona
Current Conditions -  °F | °C
As of 2:55 PM on Friday 31 Oct 2014 (Local Time) from KFHU Reporting Station
Broken Clouds Broken Clouds  
Wind Chill: 79°   Ceiling: 20000
Heat Index: 79°   Visibility: 10mi
Dew Point: 45°   Wind: 12mph
Humidity: 30%   Direction: 100°E
Pressure: 30.05"   Gusts: NA
Location:  31.7206°N, 110.329°W
Report Text: KFHU 312155Z 10010KT 10SM FEW075 SCT160 BKN200 26/07 A3005 RMK SLP117
Loading
Personal Weather Stations






























Interactive Weather Map
Tropical Storm Tracking
New forecast layout! Learn more

10-Day Weather Forecast

Advertisements
Track Severe Weather on mobile